createdAt,value
2022-12-23T00:00:59.754Z,38.03
2022-12-23T00:03:33.063Z,41.00
2022-12-23T00:06:10.277Z,38.65
2022-12-23T00:08:43.451Z,39.38
2022-12-23T00:11:19.645Z,38.58
2022-12-23T00:14:14.681Z,40.00
2022-12-23T00:16:51.472Z,37.65
2022-12-23T00:19:23.713Z,41.53
2022-12-23T00:21:55.658Z,38.00
2022-12-23T00:24:27.603Z,37.65
2022-12-23T00:26:59.986Z,43.88
2022-12-23T00:29:31.929Z,36.78
2022-12-23T00:32:04.102Z,38.97
2022-12-23T00:34:36.178Z,39.90
2022-12-23T00:37:08.067Z,37.00
2022-12-23T00:40:04.284Z,34.22
2022-12-23T00:42:56.873Z,35.83
2022-12-23T00:45:28.864Z,35.72
2022-12-23T00:48:19.759Z,31.98
2022-12-23T00:53:25.127Z,34.40
2022-12-23T00:55:57.242Z,37.97
2022-12-23T00:58:29.372Z,37.30
2022-12-23T01:01:19.951Z,36.33
2022-12-23T01:04:10.783Z,35.35
2022-12-23T01:06:42.929Z,37.92
2022-12-23T01:09:15.401Z,35.35
2022-12-23T01:11:47.407Z,39.42
2022-12-23T01:14:20.267Z,34.75
2022-12-23T01:16:52.518Z,38.30
2022-12-23T01:19:24.645Z,36.95
2022-12-23T01:21:56.602Z,39.78
2022-12-23T01:24:33.190Z,41.90
2022-12-23T01:27:05.145Z,37.17
2022-12-23T01:29:37.136Z,39.47
2022-12-23T01:32:09.091Z,45.58
2022-12-23T01:34:41.225Z,45.15
2022-12-23T01:37:13.172Z,39.70
2022-12-23T01:39:45.396Z,43.75
2022-12-23T01:42:38.802Z,42.28
2022-12-23T01:45:29.377Z,42.40
2022-12-23T01:48:18.088Z,43.42
2022-12-23T01:51:02.892Z,44.17
2022-12-23T01:53:39.463Z,45.05
2022-12-23T01:56:20.232Z,44.20
2022-12-23T02:01:50.471Z,43.30
2022-12-23T02:04:26.122Z,44.97
2022-12-23T02:07:16.689Z,43.00
2022-12-23T02:09:48.675Z,49.83
2022-12-23T02:12:53.872Z,42.70
2022-12-23T02:16:10.155Z,55.33
2022-12-23T02:18:53.895Z,40.95
2022-12-23T02:21:41.018Z,46.78
2022-12-23T02:24:24.864Z,46.83
2022-12-23T02:27:35.397Z,38.92
2022-12-23T02:30:22.251Z,47.63
2022-12-23T02:33:30.116Z,44.35
2022-12-23T02:36:23.754Z,47.83
2022-12-23T02:39:29.722Z,45.85
2022-12-23T02:42:14.702Z,41.13
2022-12-23T02:44:46.605Z,43.17
2022-12-23T02:47:28.351Z,39.70
2022-12-23T02:50:06.529Z,37.92
2022-12-23T02:52:41.841Z,48.88
2022-12-23T02:55:18.018Z,53.80
2022-12-23T02:57:53.044Z,44.03
2022-12-23T03:00:25.143Z,53.10
2022-12-23T03:02:57.397Z,45.65
2022-12-23T03:05:42.728Z,45.50
2022-12-23T03:08:21.387Z,45.53
2022-12-23T03:11:04.810Z,43.50
2022-12-23T03:13:51.893Z,41.58
2022-12-23T03:16:31.311Z,47.97
2022-12-23T03:19:36.523Z,46.25
2022-12-23T03:22:30.617Z,48.45
2022-12-23T03:25:20.253Z,54.72
2022-12-23T03:28:04.859Z,47.75
2022-12-23T03:30:41.536Z,49.35
2022-12-23T03:33:22.872Z,46.75
2022-12-23T03:36:06.395Z,42.60
2022-12-23T03:38:40.868Z,52.58
2022-12-23T03:41:30.680Z,51.45
2022-12-23T03:44:27.400Z,42.13
2022-12-23T03:47:08.244Z,40.58
2022-12-23T03:49:54.367Z,43.40
2022-12-23T03:52:35.763Z,37.22
2022-12-23T03:55:15.520Z,47.03
2022-12-23T03:58:04.174Z,47.13
2022-12-23T04:00:44.237Z,35.22
2022-12-23T04:03:39.267Z,38.63
2022-12-23T04:06:16.375Z,39.30
2022-12-23T04:08:50.231Z,36.97
2022-12-23T04:11:22.208Z,37.65
2022-12-23T04:13:54.431Z,43.30
2022-12-23T04:16:28.615Z,41.90
2022-12-23T04:19:00.744Z,41.95
2022-12-23T04:21:32.678Z,37.63
2022-12-23T04:24:05.817Z,44.45
2022-12-23T04:26:38.016Z,42.33
2022-12-23T04:29:09.890Z,37.70
2022-12-23T04:31:41.855Z,39.58
2022-12-23T04:34:13.815Z,36.55
2022-12-23T04:36:45.796Z,45.88
2022-12-23T04:39:17.811Z,44.10
2022-12-23T04:41:50.236Z,34.25
2022-12-23T04:44:22.205Z,44.33
2022-12-23T04:46:54.347Z,41.38
2022-12-23T04:49:26.349Z,39.58
2022-12-23T04:51:58.796Z,43.40
2022-12-23T04:54:30.730Z,41.28
2022-12-23T04:57:02.736Z,47.65
2022-12-23T04:59:34.694Z,34.17
2022-12-23T05:02:07.263Z,37.50
2022-12-23T05:04:39.492Z,38.17
2022-12-23T05:07:11.474Z,35.67
2022-12-23T05:09:43.530Z,37.65
2022-12-23T05:12:15.511Z,43.00
2022-12-23T05:14:47.641Z,36.63
2022-12-23T05:17:19.625Z,42.75
2022-12-23T05:19:51.501Z,43.60
2022-12-23T05:22:23.469Z,36.90
2022-12-23T05:24:55.397Z,42.45
2022-12-23T05:27:27.344Z,36.47
2022-12-23T05:29:59.668Z,36.25
2022-12-23T05:32:31.737Z,37.47
2022-12-23T05:35:03.730Z,38.78
2022-12-23T05:37:35.695Z,41.83
2022-12-23T05:40:08.327Z,36.75
2022-12-23T05:42:40.529Z,36.28
2022-12-23T05:45:12.475Z,46.17
2022-12-23T05:47:44.426Z,33.83
2022-12-23T05:50:16.452Z,40.65
2022-12-23T05:52:48.371Z,42.67
2022-12-23T05:55:20.377Z,37.30
2022-12-23T05:57:55.523Z,37.58
2022-12-23T06:00:28.134Z,36.63
2022-12-23T06:03:00.400Z,32.63
2022-12-23T06:05:32.538Z,34.00
2022-12-23T06:08:04.750Z,35.78
2022-12-23T06:10:36.716Z,34.55
2022-12-23T06:13:08.850Z,37.22
2022-12-23T06:15:40.848Z,38.05
2022-12-23T06:18:12.879Z,36.42
2022-12-23T06:20:48.493Z,33.10
2022-12-23T06:23:20.450Z,36.83
2022-12-23T06:25:59.241Z,41.45
2022-12-23T06:28:31.329Z,35.17
2022-12-23T06:31:03.370Z,39.17
2022-12-23T06:33:35.367Z,35.85
2022-12-23T06:36:08.279Z,34.47
2022-12-23T06:38:40.405Z,42.45
2022-12-23T06:41:12.372Z,38.97
2022-12-23T06:43:44.369Z,39.42
2022-12-23T06:46:16.402Z,37.70
2022-12-23T06:48:48.380Z,38.20
2022-12-23T06:51:21.899Z,38.58
2022-12-23T06:53:54.053Z,41.47
2022-12-23T06:56:26.690Z,48.10
2022-12-23T06:58:58.624Z,44.45
2022-12-23T07:01:30.832Z,45.30
2022-12-23T07:04:03.421Z,45.15
2022-12-23T07:06:35.350Z,48.05
2022-12-23T07:09:07.824Z,47.63
2022-12-23T07:11:39.795Z,42.63
2022-12-23T07:14:12.139Z,48.83
2022-12-23T07:16:44.150Z,42.85
2022-12-23T07:19:16.212Z,44.97
2022-12-23T07:21:48.308Z,40.33
2022-12-23T07:24:20.236Z,48.55
2022-12-23T07:26:52.685Z,42.58
2022-12-23T07:29:24.637Z,49.58
2022-12-23T07:31:56.668Z,44.85
2022-12-23T07:34:28.669Z,40.03
2022-12-23T07:37:00.656Z,46.72
2022-12-23T07:39:32.616Z,43.30
2022-12-23T07:42:33.550Z,43.80
2022-12-23T07:44:56.396Z,40.33
2022-12-23T07:47:28.387Z,42.38
2022-12-23T07:50:00.326Z,38.58
2022-12-23T07:52:32.286Z,40.17
2022-12-23T07:55:04.814Z,42.55
2022-12-23T07:57:38.458Z,39.63
2022-12-23T08:00:12.861Z,38.03
2022-12-23T08:02:45.279Z,35.35
2022-12-23T08:05:17.691Z,40.78
2022-12-23T08:07:50.456Z,37.40
2022-12-23T08:10:22.906Z,37.67
2022-12-23T08:12:55.097Z,35.42
2022-12-23T08:15:27.185Z,38.10
2022-12-23T08:18:00.673Z,33.55
2022-12-23T08:20:32.521Z,34.92
2022-12-23T08:23:04.470Z,33.80
2022-12-23T08:25:36.393Z,37.45
2022-12-23T08:28:08.377Z,33.90
2022-12-23T08:30:40.329Z,37.20
2022-12-23T08:33:12.224Z,36.83
2022-12-23T08:35:44.182Z,33.80
2022-12-23T08:38:16.163Z,35.15
2022-12-23T08:40:48.183Z,36.45
2022-12-23T08:43:20.167Z,37.75
2022-12-23T08:45:52.254Z,34.35
2022-12-23T08:48:24.260Z,37.47
2022-12-23T08:50:56.328Z,33.42
2022-12-23T08:53:28.291Z,35.92
2022-12-23T08:56:09.741Z,39.13
2022-12-23T08:58:44.411Z,40.55
2022-12-23T09:01:18.425Z,39.17
2022-12-23T09:03:51.211Z,35.58
2022-12-23T09:06:29.701Z,38.95
2022-12-23T09:09:02.356Z,39.13
2022-12-23T09:11:35.580Z,43.42
2022-12-23T09:14:10.353Z,41.00
2022-12-23T09:16:42.397Z,40.90
2022-12-23T09:19:14.445Z,38.88
2022-12-23T09:21:46.527Z,43.00
2022-12-23T09:24:18.512Z,42.75
2022-12-23T09:26:50.449Z,40.63
2022-12-23T09:29:22.486Z,33.20
2022-12-23T09:31:54.740Z,38.25
2022-12-23T09:34:27.237Z,37.58
2022-12-23T09:36:59.187Z,34.40
2022-12-23T09:39:31.408Z,32.90
2022-12-23T09:42:26.608Z,31.63
2022-12-23T09:45:12.049Z,34.40
2022-12-23T09:47:45.571Z,33.20
2022-12-23T09:50:29.189Z,35.92
2022-12-23T09:53:04.553Z,38.95
2022-12-23T09:55:58.044Z,42.88
2022-12-23T09:58:30.009Z,34.90
2022-12-23T10:01:16.459Z,36.05
2022-12-23T10:04:05.142Z,37.47
2022-12-23T10:06:39.315Z,38.17
2022-12-23T10:09:12.819Z,32.97
2022-12-23T10:11:47.275Z,34.85
2022-12-23T10:14:20.699Z,27.85
2022-12-23T10:17:01.039Z,30.67
2022-12-23T10:19:54.160Z,35.80
2022-12-23T10:22:33.969Z,33.65
2022-12-23T10:25:20.426Z,31.60
2022-12-23T10:27:52.419Z,34.80
2022-12-23T10:33:22.796Z,40.47
2022-12-23T10:36:16.269Z,35.53
2022-12-23T10:39:01.827Z,39.65
2022-12-23T10:41:48.731Z,35.72
2022-12-23T10:44:39.433Z,38.50
2022-12-23T10:47:21.040Z,42.35
2022-12-23T10:50:19.294Z,37.58
2022-12-23T10:52:53.033Z,41.70
2022-12-23T10:55:33.461Z,37.90
2022-12-23T10:58:18.603Z,36.42
2022-12-23T11:01:05.765Z,39.15
2022-12-23T11:03:49.530Z,47.17
2022-12-23T11:06:21.914Z,47.35
2022-12-23T11:08:55.341Z,48.80
2022-12-23T11:12:04.422Z,48.70
2022-12-23T11:14:51.371Z,43.72
2022-12-23T11:17:29.514Z,37.17
2022-12-23T11:20:10.683Z,42.60
2022-12-23T11:22:54.437Z,46.35
2022-12-23T11:25:35.254Z,46.22
2022-12-23T11:30:56.298Z,44.85
2022-12-23T11:33:32.109Z,47.80
2022-12-23T11:36:09.290Z,51.55
2022-12-23T11:39:03.978Z,48.58
2022-12-23T11:41:43.790Z,43.38
2022-12-23T11:44:28.708Z,39.95
2022-12-23T11:47:24.598Z,40.47
2022-12-23T11:50:01.579Z,39.78
2022-12-23T11:52:34.320Z,52.40
2022-12-23T11:55:07.286Z,52.78
2022-12-23T11:57:43.572Z,44.03
2022-12-23T12:00:22.822Z,42.40
2022-12-23T12:02:59.077Z,40.28
2022-12-23T12:05:47.350Z,43.08
2022-12-23T12:08:25.028Z,40.00
2022-12-23T12:11:21.960Z,43.70
2022-12-23T12:14:03.292Z,35.97
2022-12-23T12:16:55.495Z,36.92
2022-12-23T12:19:36.068Z,35.85
2022-12-23T12:22:26.448Z,41.85
2022-12-23T12:25:01.108Z,40.47
2022-12-23T12:27:38.577Z,41.33
2022-12-23T12:30:18.582Z,38.72
2022-12-23T12:33:01.393Z,39.38
2022-12-23T12:35:54.621Z,38.10
2022-12-23T12:38:32.733Z,37.28
2022-12-23T12:41:23.527Z,42.72
2022-12-23T12:46:50.680Z,40.83
2022-12-23T12:49:30.462Z,54.90
2022-12-23T12:52:12.313Z,45.83
2022-12-23T12:54:48.196Z,60.22
2022-12-23T12:57:23.110Z,54.17
2022-12-23T13:00:05.314Z,47.15
2022-12-23T13:02:50.553Z,47.15
2022-12-23T13:05:37.653Z,44.45
2022-12-23T13:08:27.472Z,44.50
2022-12-23T13:11:11.542Z,45.75
2022-12-23T13:13:51.510Z,46.28
2022-12-23T13:16:27.308Z,41.50
2022-12-23T13:19:04.629Z,40.08
2022-12-23T13:22:16.183Z,43.85
2022-12-23T13:25:22.241Z,44.30
2022-12-23T13:28:15.417Z,51.58
2022-12-23T13:31:20.728Z,50.42
2022-12-23T13:34:18.404Z,46.95
2022-12-23T13:37:18.465Z,44.22
2022-12-23T13:40:08.727Z,40.10
2022-12-23T13:42:51.167Z,42.50
2022-12-23T13:45:28.338Z,39.97
2022-12-23T13:48:26.712Z,40.00
2022-12-23T13:51:15.582Z,43.03
2022-12-23T13:54:10.732Z,41.08
2022-12-23T13:56:57.717Z,45.28
2022-12-23T13:59:41.932Z,41.10
2022-12-23T14:02:35.779Z,39.38
2022-12-23T14:05:27.367Z,35.40
2022-12-23T14:08:01.412Z,35.05
2022-12-23T14:10:34.617Z,36.80
2022-12-23T14:13:09.072Z,34.90
2022-12-23T14:16:08.762Z,40.17
2022-12-23T14:19:14.709Z,36.13
2022-12-23T14:22:24.620Z,41.78
2022-12-23T14:25:17.708Z,43.05
2022-12-23T14:27:58.686Z,37.85
2022-12-23T14:30:37.691Z,40.63
2022-12-23T14:33:18.911Z,41.60
2022-12-23T14:35:57.752Z,37.50
2022-12-23T14:38:32.483Z,32.40
2022-12-23T14:41:24.048Z,34.38
2022-12-23T14:43:57.418Z,36.53
2022-12-23T14:46:37.155Z,36.05
2022-12-23T14:49:41.092Z,36.13
2022-12-23T14:52:44.410Z,37.72
2022-12-23T14:55:31.582Z,32.53
2022-12-23T14:58:15.428Z,36.97
2022-12-23T15:00:51.722Z,31.23
2022-12-23T15:03:34.551Z,36.75
2022-12-23T15:06:07.573Z,43.55
2022-12-23T15:08:44.583Z,47.67
2022-12-23T15:11:25.126Z,36.33
2022-12-23T15:14:02.958Z,36.13
2022-12-23T15:16:37.663Z,36.17
2022-12-23T15:19:19.491Z,39.97
2022-12-23T15:22:17.929Z,36.58
2022-12-23T15:24:53.026Z,39.75
2022-12-23T15:27:28.374Z,37.40
2022-12-23T15:30:02.119Z,33.50
2022-12-23T15:32:34.570Z,34.75
2022-12-23T15:35:07.961Z,39.38
2022-12-23T15:37:41.430Z,40.88
2022-12-23T15:40:44.676Z,41.30
2022-12-23T15:43:20.127Z,45.33
2022-12-23T15:45:52.996Z,39.50
2022-12-23T15:48:32.943Z,40.65
2022-12-23T15:51:12.951Z,50.30
2022-12-23T15:53:48.095Z,50.90
2022-12-23T15:56:26.247Z,47.40
2022-12-23T15:58:58.877Z,42.05
2022-12-23T16:01:39.035Z,45.53
2022-12-23T16:04:22.282Z,38.10
2022-12-23T16:06:54.400Z,44.97
2022-12-23T16:09:33.568Z,44.60
2022-12-23T16:12:26.498Z,42.28
2022-12-23T16:15:01.178Z,41.78
2022-12-23T16:17:34.699Z,49.63
2022-12-23T16:20:26.957Z,44.33
2022-12-23T16:23:03.152Z,45.58
2022-12-23T16:25:36.505Z,48.35
2022-12-23T16:28:13.830Z,44.40
2022-12-23T16:30:49.851Z,44.85
2022-12-23T16:33:33.914Z,45.88
2022-12-23T16:36:22.386Z,42.30
2022-12-23T16:39:00.257Z,40.00
2022-12-23T16:41:32.384Z,44.45
2022-12-23T16:44:04.811Z,48.72
2022-12-23T16:46:40.326Z,45.05
2022-12-23T16:49:18.933Z,55.10
2022-12-23T16:51:50.924Z,49.65
2022-12-23T16:54:23.164Z,54.78
2022-12-23T16:56:55.432Z,52.20
2022-12-23T16:59:27.535Z,56.55
2022-12-23T17:02:03.728Z,49.28
2022-12-23T17:04:36.026Z,53.75
2022-12-23T17:07:12.599Z,48.60
2022-12-23T17:09:44.596Z,52.42
2022-12-23T17:12:16.535Z,55.92
2022-12-23T17:14:48.495Z,53.38
2022-12-23T17:17:21.849Z,55.92
2022-12-23T17:19:56.489Z,51.58
2022-12-23T17:22:28.949Z,46.53
2022-12-23T17:25:00.881Z,47.35
2022-12-23T17:27:32.854Z,51.80
2022-12-23T17:30:05.193Z,53.13
2022-12-23T17:32:37.206Z,43.05
2022-12-23T17:35:15.296Z,47.97
2022-12-23T17:37:47.425Z,51.58
2022-12-23T17:40:20.494Z,43.90
2022-12-23T17:42:52.464Z,50.13
2022-12-23T17:45:27.225Z,63.78
2022-12-23T17:47:59.369Z,57.60
2022-12-23T17:50:34.449Z,49.20
2022-12-23T17:53:06.681Z,48.40
2022-12-23T17:55:38.608Z,45.85
2022-12-23T17:58:10.787Z,58.72
2022-12-23T18:00:42.780Z,49.80
2022-12-23T18:03:23.818Z,60.83
2022-12-23T18:06:01.813Z,46.80
2022-12-23T18:08:34.303Z,57.72
2022-12-23T18:11:07.299Z,60.42
2022-12-23T18:13:39.393Z,73.43
2022-12-23T18:16:13.773Z,62.33
2022-12-23T18:18:47.071Z,57.05
2022-12-23T18:21:25.763Z,53.90
2022-12-23T18:24:00.037Z,59.50
2022-12-23T18:26:32.172Z,61.42
2022-12-23T18:29:04.384Z,56.40
2022-12-23T18:31:50.548Z,47.45
2022-12-23T18:34:23.841Z,63.00
2022-12-23T18:36:55.845Z,51.10
2022-12-23T18:39:27.887Z,55.72
2022-12-23T18:42:00.249Z,51.50
2022-12-23T18:44:32.240Z,57.05
2022-12-23T18:47:04.263Z,52.38
2022-12-23T18:49:36.515Z,62.83
2022-12-23T18:52:14.895Z,65.47
2022-12-23T18:54:46.840Z,60.17
2022-12-23T18:57:21.598Z,67.78
2022-12-23T18:59:53.551Z,67.47
2022-12-23T19:02:25.666Z,73.47
2022-12-23T19:04:57.633Z,61.13
2022-12-23T19:07:29.616Z,72.75
2022-12-23T19:10:01.577Z,50.20
2022-12-23T19:12:33.588Z,54.15
2022-12-23T19:15:06.020Z,61.83
2022-12-23T19:17:38.421Z,64.38
2022-12-23T19:20:14.111Z,66.82
2022-12-23T19:22:47.573Z,54.08
2022-12-23T19:25:20.152Z,59.97
2022-12-23T19:27:52.145Z,51.50
2022-12-23T19:30:24.334Z,53.22
2022-12-23T19:32:56.337Z,76.30
2022-12-23T19:35:28.760Z,71.82
2022-12-23T19:38:00.773Z,69.30
2022-12-23T19:40:32.751Z,75.50
2022-12-23T19:43:05.061Z,71.68
2022-12-23T19:45:37.019Z,66.75
2022-12-23T19:48:08.988Z,94.15
2022-12-23T19:50:40.925Z,61.90
2022-12-23T19:55:45.166Z,87.97
2022-12-23T19:58:17.176Z,85.57
2022-12-23T20:00:49.217Z,100.20
2022-12-23T20:03:21.242Z,70.53
2022-12-23T20:05:53.211Z,68.80
2022-12-23T20:08:25.167Z,60.78
2022-12-23T20:11:12.946Z,57.17
2022-12-23T20:13:45.960Z,67.20
2022-12-23T20:16:18.237Z,74.45
2022-12-23T20:18:50.671Z,98.00
2022-12-23T20:21:23.046Z,93.70
2022-12-23T20:23:55.047Z,74.10
2022-12-23T20:26:29.337Z,81.65
2022-12-23T20:29:01.541Z,116.05
2022-12-23T20:31:35.812Z,98.03
2022-12-23T20:34:11.428Z,63.67
2022-12-23T20:36:43.664Z,84.00
2022-12-23T20:39:15.712Z,81.80
2022-12-23T20:41:47.677Z,70.47
2022-12-23T20:44:36.905Z,72.30
2022-12-23T20:47:09.591Z,72.80
2022-12-23T20:49:41.664Z,54.13
2022-12-23T20:52:13.731Z,56.03
2022-12-23T20:54:45.725Z,52.53
2022-12-23T20:57:17.958Z,48.70
2022-12-23T20:59:50.158Z,44.92
2022-12-23T21:02:22.159Z,41.25
2022-12-23T21:04:54.210Z,42.22
2022-12-23T21:07:26.961Z,42.25
2022-12-23T21:09:59.087Z,36.80
2022-12-23T21:12:31.110Z,36.88
2022-12-23T21:15:03.318Z,40.03
2022-12-23T21:17:35.235Z,35.42
2022-12-23T21:20:09.457Z,37.20
2022-12-23T21:22:41.459Z,36.92
2022-12-23T21:25:13.381Z,36.78
2022-12-23T21:27:45.406Z,35.08
2022-12-23T21:30:17.411Z,36.50
2022-12-23T21:32:49.584Z,39.00
2022-12-23T21:35:21.540Z,34.42
2022-12-23T21:37:53.447Z,39.88
2022-12-23T21:40:25.479Z,39.78
2022-12-23T21:42:57.416Z,39.95
2022-12-23T21:45:29.501Z,38.83
2022-12-23T21:48:01.439Z,38.67
2022-12-23T21:50:33.520Z,35.13
2022-12-23T21:53:05.497Z,41.95
2022-12-23T21:55:37.809Z,41.72
2022-12-23T21:58:10.839Z,42.50
2022-12-23T22:00:45.595Z,49.10
2022-12-23T22:03:17.593Z,43.80
2022-12-23T22:05:49.613Z,41.03
2022-12-23T22:08:21.549Z,51.55
2022-12-23T22:10:53.503Z,37.67
2022-12-23T22:13:28.800Z,41.95
2022-12-23T22:16:00.725Z,48.30
2022-12-23T22:18:32.719Z,55.15
2022-12-23T22:21:13.904Z,52.42
2022-12-23T22:23:49.293Z,49.42
2022-12-23T22:26:25.771Z,44.00
2022-12-23T22:29:01.017Z,38.80
2022-12-23T22:31:46.431Z,48.92
2022-12-23T22:34:23.142Z,45.78
2022-12-23T22:36:55.535Z,40.33
2022-12-23T22:39:27.505Z,57.28
2022-12-23T22:41:59.515Z,42.80
2022-12-23T22:44:31.436Z,47.92
2022-12-23T22:47:03.882Z,43.55
2022-12-23T22:49:35.895Z,51.22
2022-12-23T22:52:08.393Z,47.15
2022-12-23T22:54:40.362Z,49.45
2022-12-23T22:57:12.362Z,63.00
2022-12-23T22:59:44.308Z,62.95
2022-12-23T23:02:16.375Z,54.70
2022-12-23T23:04:48.223Z,48.40
2022-12-23T23:07:20.243Z,63.47
2022-12-23T23:09:52.197Z,57.03
2022-12-23T23:12:24.195Z,56.92
2022-12-23T23:14:56.340Z,70.63
2022-12-23T23:17:29.789Z,60.83
2022-12-23T23:20:01.791Z,52.40
2022-12-23T23:22:33.859Z,64.88
2022-12-23T23:25:06.425Z,67.18
2022-12-23T23:27:38.422Z,76.10
2022-12-23T23:30:10.694Z,47.03
2022-12-23T23:32:42.836Z,66.47
2022-12-23T23:35:14.954Z,58.30
2022-12-23T23:37:46.959Z,68.13
2022-12-23T23:40:19.269Z,98.70
2022-12-23T23:42:51.279Z,62.20
2022-12-23T23:45:23.545Z,63.40
2022-12-23T23:47:55.839Z,53.60
2022-12-23T23:50:27.922Z,59.03
2022-12-23T23:52:59.849Z,56.92
2022-12-23T23:55:31.923Z,57.05
2022-12-23T23:58:05.404Z,49.38
